createdAt,value
2018-07-05T00:00:08.198Z,98110.53
2018-07-05T00:02:46.956Z,98110.25
2018-07-05T00:05:25.859Z,98114.59
2018-07-05T00:08:04.780Z,98108.92
2018-07-05T00:10:43.555Z,98116.77
2018-07-05T00:13:22.745Z,98114.05
2018-07-05T00:16:01.628Z,98113.06
2018-07-05T00:21:30.985Z,98103.52
2018-07-05T00:24:09.794Z,98099.51
2018-07-05T00:26:48.468Z,98099.34
2018-07-05T00:29:27.242Z,98105.13
2018-07-05T00:32:06.090Z,98100.67
2018-07-05T00:34:44.905Z,98093.83
2018-07-05T00:37:23.506Z,98086.27
2018-07-05T00:40:02.184Z,98085.98
2018-07-05T00:42:40.963Z,98085.15
2018-07-05T00:45:19.497Z,98089.44
2018-07-05T00:47:58.203Z,98085.75
2018-07-05T00:50:36.904Z,98075.00
2018-07-05T00:53:15.414Z,98078.77
2018-07-05T00:55:54.182Z,98078.41
2018-07-05T00:58:32.726Z,98070.88
2018-07-05T01:01:17.332Z,98075.23
2018-07-05T01:03:55.990Z,98067.41
2018-07-05T01:06:34.813Z,98077.36
2018-07-05T01:09:13.635Z,98077.31
2018-07-05T01:11:52.339Z,98081.44
2018-07-05T01:14:31.062Z,98077.06
2018-07-05T01:17:09.687Z,98072.15
2018-07-05T01:19:48.413Z,98075.53
2018-07-05T01:22:27.494Z,98072.86
2018-07-05T01:25:06.327Z,98080.10
2018-07-05T01:27:45.042Z,98079.97
2018-07-05T01:30:23.914Z,98077.72
2018-07-05T01:33:02.638Z,98082.64
2018-07-05T01:35:41.549Z,98088.86
2018-07-05T01:38:20.165Z,98085.17
2018-07-05T01:40:58.871Z,98088.27
2018-07-05T01:43:37.544Z,98085.27
2018-07-05T01:46:16.295Z,98080.46
2018-07-05T01:48:55.090Z,98079.46
2018-07-05T01:51:33.723Z,98076.61
2018-07-05T01:54:12.426Z,98078.23
2018-07-05T01:56:51.170Z,98070.34
2018-07-05T01:59:29.962Z,98077.80
2018-07-05T02:02:08.691Z,98081.77
2018-07-05T02:04:47.490Z,98085.88
2018-07-05T02:07:26.183Z,98082.69
2018-07-05T02:10:04.797Z,98082.69
2018-07-05T02:12:43.713Z,98086.28
2018-07-05T02:15:22.371Z,98085.76
2018-07-05T02:18:01.267Z,98080.67
2018-07-05T02:20:40.267Z,98076.20
2018-07-05T02:23:19.044Z,98076.30
2018-07-05T02:25:58.442Z,98083.60
2018-07-05T02:28:37.251Z,98074.00
2018-07-05T02:31:16.088Z,98078.49
2018-07-05T02:33:57.720Z,98074.23
2018-07-05T02:36:37.064Z,98077.21
2018-07-05T02:39:21.390Z,98075.88
2018-07-05T02:42:00.534Z,98070.91
2018-07-05T02:44:39.492Z,98071.44
2018-07-05T02:47:18.187Z,98076.19
2018-07-05T02:49:57.239Z,98061.94
2018-07-05T02:52:36.104Z,98062.81
2018-07-05T02:55:14.962Z,98068.01
2018-07-05T02:57:53.601Z,98057.45
2018-07-05T03:00:32.377Z,98058.68
2018-07-05T03:03:11.232Z,98057.64
2018-07-05T03:05:50.633Z,98053.08
2018-07-05T03:08:29.668Z,98053.74
2018-07-05T03:11:08.406Z,98057.85
2018-07-05T03:13:47.058Z,98054.73
2018-07-05T03:16:25.881Z,98058.66
2018-07-05T03:19:05.239Z,98055.98
2018-07-05T03:21:44.546Z,98068.16
2018-07-05T03:24:23.618Z,98072.96
2018-07-05T03:27:02.483Z,98069.04
2018-07-05T03:29:41.559Z,98071.63
2018-07-05T03:32:20.335Z,98073.31
2018-07-05T03:34:59.184Z,98081.44
2018-07-05T03:37:40.250Z,98086.08
2018-07-05T03:40:20.624Z,98085.08
2018-07-05T03:43:05.322Z,98087.34
2018-07-05T03:45:44.286Z,98085.20
2018-07-05T03:48:23.080Z,98092.61
2018-07-05T03:51:01.746Z,98087.28
2018-07-05T03:53:42.286Z,98091.57
2018-07-05T03:56:21.086Z,98090.28
2018-07-05T03:59:00.135Z,98093.29
2018-07-05T04:01:38.673Z,98098.81
2018-07-05T04:04:17.593Z,98094.22
2018-07-05T04:06:56.393Z,98090.28
2018-07-05T04:09:35.411Z,98092.14
2018-07-05T04:12:13.981Z,98092.58
2018-07-05T04:14:52.984Z,98089.34
2018-07-05T04:17:36.258Z,98096.06
2018-07-05T04:20:15.084Z,98091.50
2018-07-05T04:22:53.868Z,98089.73
2018-07-05T04:25:32.653Z,98095.22
2018-07-05T04:28:11.347Z,98093.09
2018-07-05T04:30:50.255Z,98096.80
2018-07-05T04:33:29.106Z,98101.97
2018-07-05T04:36:07.742Z,98102.06
2018-07-05T04:38:46.519Z,98098.72
2018-07-05T04:41:25.291Z,98102.42
2018-07-05T04:44:05.367Z,98090.72
2018-07-05T04:46:44.095Z,98093.80
2018-07-05T04:49:22.736Z,98094.69
2018-07-05T04:52:01.483Z,98093.64
2018-07-05T04:54:40.432Z,98085.29
2018-07-05T04:57:19.462Z,98088.13
2018-07-05T04:59:58.812Z,98081.86
2018-07-05T05:02:37.553Z,98100.03
2018-07-05T05:05:21.520Z,98098.02
2018-07-05T05:08:00.804Z,98100.39
2018-07-05T05:10:39.645Z,98100.41
2018-07-05T05:13:18.563Z,98095.06
2018-07-05T05:15:58.114Z,98092.87
2018-07-05T05:18:36.792Z,98097.39
2018-07-05T05:21:15.727Z,98093.80
2018-07-05T05:23:54.622Z,98094.75
2018-07-05T05:26:33.864Z,98098.02
2018-07-05T05:29:12.905Z,98097.31
2018-07-05T05:31:51.695Z,98094.33
2018-07-05T05:34:30.897Z,98095.30
2018-07-05T05:37:09.630Z,98099.95
2018-07-05T05:39:48.489Z,98101.89
2018-07-05T05:42:27.110Z,98105.25
2018-07-05T05:45:05.901Z,98095.35
2018-07-05T05:47:44.524Z,98103.55
2018-07-05T05:50:23.277Z,98102.98
2018-07-05T05:53:02.189Z,98098.83
2018-07-05T05:55:41.098Z,98100.49
2018-07-05T05:58:19.782Z,98085.86
2018-07-05T06:00:58.666Z,98097.04
2018-07-05T06:03:37.630Z,98103.84
2018-07-05T06:09:09.161Z,98108.81
2018-07-05T06:11:48.159Z,98106.02
2018-07-05T06:14:26.902Z,98107.20
2018-07-05T06:19:56.112Z,98097.03
2018-07-05T06:22:35.296Z,98097.70
2018-07-05T06:25:14.426Z,98095.13
2018-07-05T06:27:53.536Z,98093.33
2018-07-05T06:30:32.370Z,98094.00
2018-07-05T06:33:11.075Z,98096.27
2018-07-05T06:35:49.801Z,98092.94
2018-07-05T06:38:28.441Z,98097.80
2018-07-05T06:41:07.947Z,98101.03
2018-07-05T06:43:46.579Z,98101.46
2018-07-05T06:46:25.293Z,98097.74
2018-07-05T06:49:04.078Z,98095.69
2018-07-05T06:51:42.690Z,98092.64
2018-07-05T06:54:21.390Z,98096.15
2018-07-05T06:57:00.028Z,98096.45
2018-07-05T06:59:38.951Z,98094.42
2018-07-05T07:02:18.467Z,98091.17
2018-07-05T07:04:57.531Z,98098.95
2018-07-05T07:07:36.399Z,98096.17
2018-07-05T07:10:14.980Z,98105.83
2018-07-05T07:12:53.633Z,98101.13
2018-07-05T07:15:32.424Z,98095.88
2018-07-05T07:18:11.270Z,98096.42
2018-07-05T07:20:50.097Z,98091.48
2018-07-05T07:23:29.005Z,98091.77
2018-07-05T07:26:07.583Z,98091.09
2018-07-05T07:28:46.174Z,98083.08
2018-07-05T07:31:24.671Z,98091.54
2018-07-05T07:34:03.268Z,98092.91
2018-07-05T07:36:41.910Z,98089.38
2018-07-05T07:39:20.678Z,98085.65
2018-07-05T07:41:49.722Z,98086.97
2018-07-05T07:44:17.151Z,98089.22
2018-07-05T07:46:43.799Z,98087.81
2018-07-05T07:49:10.072Z,98083.07
2018-07-05T07:51:36.940Z,98078.81
2018-07-05T07:54:03.185Z,98074.02
2018-07-05T07:56:29.424Z,98071.76
2018-07-05T07:58:55.693Z,98070.41
2018-07-05T08:01:21.930Z,98064.09
2018-07-05T08:03:48.183Z,98063.78
2018-07-05T08:06:14.455Z,98068.88
2018-07-05T08:08:41.818Z,98064.67
2018-07-05T08:11:08.060Z,98069.66
2018-07-05T08:13:34.367Z,98060.20
2018-07-05T08:16:00.611Z,98061.27
2018-07-05T08:18:26.878Z,98062.61
2018-07-05T08:20:53.108Z,98057.49
2018-07-05T08:23:19.391Z,98055.93
2018-07-05T08:25:45.639Z,98048.94
2018-07-05T08:28:12.060Z,98042.47
2018-07-05T08:30:38.326Z,98045.77
2018-07-05T08:33:04.651Z,98042.52
2018-07-05T08:35:31.196Z,98043.77
2018-07-05T08:37:57.514Z,98042.16
2018-07-05T08:40:23.902Z,98038.02
2018-07-05T08:42:50.146Z,98036.78
2018-07-05T08:45:16.882Z,98037.15
2018-07-05T08:47:43.131Z,98033.69
2018-07-05T08:50:09.495Z,98028.02
2018-07-05T08:52:36.735Z,98022.99
2018-07-05T08:55:03.007Z,98021.61
2018-07-05T08:57:29.292Z,98027.14
2018-07-05T08:59:55.875Z,98019.56
2018-07-05T09:02:22.255Z,98020.11
2018-07-05T09:04:50.320Z,98020.61
2018-07-05T09:07:16.637Z,98013.05
2018-07-05T09:09:42.931Z,98020.61
2018-07-05T09:12:09.172Z,98019.39
2018-07-05T09:14:35.430Z,98011.39
2018-07-05T09:17:01.713Z,98007.43
2018-07-05T09:19:28.545Z,98006.13
2018-07-05T09:21:54.814Z,98006.13
2018-07-05T09:24:21.338Z,98001.09
2018-07-05T09:26:47.971Z,97999.61
2018-07-05T09:29:14.643Z,98002.77
2018-07-05T09:31:41.914Z,98002.98
2018-07-05T09:34:08.697Z,98004.23
2018-07-05T09:36:59.497Z,97993.47
2018-07-05T09:39:31.130Z,98000.81
2018-07-05T09:41:58.368Z,98002.77
2018-07-05T09:44:25.202Z,97996.82
2018-07-05T09:46:52.723Z,98001.34
2018-07-05T09:49:19.975Z,98002.34
2018-07-05T09:51:50.177Z,97999.97
2018-07-05T09:54:18.812Z,97998.62
2018-07-05T09:56:46.081Z,98003.17
2018-07-05T09:59:13.222Z,97996.26
2018-07-05T10:01:43.112Z,98003.22
2018-07-05T10:04:12.879Z,98001.86
2018-07-05T10:06:43.452Z,97997.33
2018-07-05T10:09:11.975Z,97989.95
2018-07-05T10:11:42.162Z,97986.37
2018-07-05T10:14:10.878Z,97980.63
2018-07-05T10:16:42.086Z,97984.24
2018-07-05T10:19:12.346Z,97990.45
2018-07-05T10:21:39.495Z,97991.19
2018-07-05T10:24:06.516Z,97982.47
2018-07-05T10:26:36.333Z,97989.88
2018-07-05T10:29:14.997Z,97990.37
2018-07-05T10:31:53.795Z,97983.29
2018-07-05T10:34:20.034Z,97981.49
2018-07-05T10:36:47.324Z,97978.56
2018-07-05T10:39:13.614Z,97973.45
2018-07-05T10:41:52.260Z,97965.45
2018-07-05T10:44:30.893Z,97967.90
2018-07-05T10:47:09.525Z,97959.97
2018-07-05T10:49:48.182Z,97960.94
2018-07-05T10:52:26.816Z,97964.30
2018-07-05T10:55:05.461Z,97968.55
2018-07-05T10:57:44.176Z,97962.64
2018-07-05T11:00:22.980Z,97962.66
2018-07-05T11:03:01.539Z,97959.74
2018-07-05T11:05:40.283Z,97957.02
2018-07-05T11:08:27.232Z,97955.70
2018-07-05T11:11:06.350Z,97949.38
2018-07-05T11:13:45.216Z,97948.66
2018-07-05T11:16:23.780Z,97942.63
2018-07-05T11:19:02.583Z,97941.61
2018-07-05T11:21:41.208Z,97939.19
2018-07-05T11:24:19.954Z,97932.65
2018-07-05T11:26:58.721Z,97924.13
2018-07-05T11:29:37.554Z,97918.95
2018-07-05T11:32:16.354Z,97921.25
2018-07-05T11:34:55.200Z,97921.61
2018-07-05T11:37:33.778Z,97919.07
2018-07-05T11:40:12.291Z,97915.16
2018-07-05T11:42:51.264Z,97913.34
2018-07-05T11:45:29.938Z,97913.55
2018-07-05T11:48:08.799Z,97921.97
2018-07-05T11:50:47.518Z,97915.05
2018-07-05T11:53:26.112Z,97911.34
2018-07-05T11:56:04.796Z,97900.45
2018-07-05T11:58:43.434Z,97899.07
2018-07-05T12:01:22.131Z,97902.76
2018-07-05T12:04:00.813Z,97902.46
2018-07-05T12:06:40.086Z,97896.47
2018-07-05T12:09:18.797Z,97896.39
2018-07-05T12:11:57.480Z,97894.70
2018-07-05T12:14:36.323Z,97891.15
2018-07-05T12:17:14.997Z,97891.13
2018-07-05T12:19:53.689Z,97894.27
2018-07-05T12:22:32.297Z,97895.08
2018-07-05T12:25:11.029Z,97890.60
2018-07-05T12:27:49.734Z,97892.03
2018-07-05T12:30:28.526Z,97889.96
2018-07-05T12:33:07.154Z,97886.20
2018-07-05T12:35:45.988Z,97874.33
2018-07-05T12:38:24.767Z,97881.29
2018-07-05T12:41:04.355Z,97876.89
2018-07-05T12:43:43.109Z,97874.70
2018-07-05T12:46:21.791Z,97876.97
2018-07-05T12:49:00.474Z,97882.36
2018-07-05T12:51:39.065Z,97879.22
2018-07-05T12:54:17.862Z,97886.77
2018-07-05T12:56:56.407Z,97887.81
2018-07-05T12:59:35.199Z,97889.61
2018-07-05T13:02:13.681Z,97885.84
2018-07-05T13:04:52.681Z,97885.22
2018-07-05T13:07:31.281Z,97883.95
2018-07-05T13:10:09.883Z,97893.14
2018-07-05T13:12:48.579Z,97903.42
2018-07-05T13:15:27.415Z,97902.22
2018-07-05T13:18:06.169Z,97902.66
2018-07-05T13:20:44.699Z,97898.55
2018-07-05T13:23:23.325Z,97900.59
2018-07-05T13:26:01.919Z,97888.30
2018-07-05T13:28:41.293Z,97893.02
2018-07-05T13:31:20.260Z,97891.59
2018-07-05T13:33:59.017Z,97898.22
2018-07-05T13:36:37.796Z,97900.69
2018-07-05T13:39:16.667Z,97897.91
2018-07-05T13:41:55.285Z,97896.34
2018-07-05T13:44:34.033Z,97893.99
2018-07-05T13:47:12.726Z,97891.41
2018-07-05T13:49:51.555Z,97887.05
2018-07-05T13:52:30.803Z,97891.63
2018-07-05T13:55:09.386Z,97898.62
2018-07-05T13:57:47.967Z,97899.14
2018-07-05T14:00:26.511Z,97891.49
2018-07-05T14:03:05.141Z,97897.66
2018-07-05T14:05:43.824Z,97901.88
2018-07-05T14:08:22.616Z,97907.83
2018-07-05T14:11:01.339Z,97907.23
2018-07-05T14:13:40.031Z,97905.87
2018-07-05T14:16:18.572Z,97904.52
2018-07-05T14:18:57.355Z,97899.70
2018-07-05T14:21:35.961Z,97909.54
2018-07-05T14:24:14.546Z,97917.05
2018-07-05T14:26:53.390Z,97912.00
2018-07-05T14:29:32.219Z,97916.55
2018-07-05T14:32:11.949Z,97911.95
2018-07-05T14:34:50.794Z,97905.50
2018-07-05T14:37:29.450Z,97912.06
2018-07-05T14:40:08.020Z,97910.11
2018-07-05T14:42:46.582Z,97911.11
2018-07-05T14:45:25.311Z,97906.91
2018-07-05T14:48:03.931Z,97909.86
2018-07-05T14:50:42.551Z,97913.17
2018-07-05T14:53:21.427Z,97912.80
2018-07-05T14:55:59.988Z,97905.84
2018-07-05T14:58:38.642Z,97904.00
2018-07-05T15:01:17.447Z,97901.53
2018-07-05T15:03:56.018Z,97906.23
2018-07-05T15:06:34.667Z,97904.78
2018-07-05T15:09:13.436Z,97908.71
2018-07-05T15:11:52.121Z,97917.91
2018-07-05T15:14:30.747Z,97912.37
2018-07-05T15:17:09.393Z,97914.77
2018-07-05T15:19:48.175Z,97909.48
2018-07-05T15:22:26.747Z,97918.36
2018-07-05T15:25:05.430Z,97911.44
2018-07-05T15:27:44.435Z,97915.52
2018-07-05T15:30:23.078Z,97906.76
2018-07-05T15:33:01.790Z,97911.16
2018-07-05T15:35:40.292Z,97909.60
2018-07-05T15:38:19.065Z,97905.47
2018-07-05T15:40:57.903Z,97909.11
2018-07-05T15:43:36.858Z,97897.73
2018-07-05T15:46:15.657Z,97892.77
2018-07-05T15:48:54.259Z,97893.94
2018-07-05T15:51:32.951Z,97883.39
2018-07-05T15:54:11.834Z,97895.22
2018-07-05T15:56:50.520Z,97903.19
2018-07-05T15:59:29.579Z,97911.44
2018-07-05T16:02:08.254Z,97921.77
2018-07-05T16:04:47.023Z,97927.53
2018-07-05T16:07:25.591Z,97928.98
2018-07-05T16:10:04.853Z,97950.83
2018-07-05T16:12:43.490Z,97946.06
2018-07-05T16:15:22.033Z,97952.48
2018-07-05T16:18:00.572Z,97950.34
2018-07-05T16:20:39.362Z,97946.33
2018-07-05T16:23:18.000Z,97947.35
2018-07-05T16:25:56.735Z,97966.50
2018-07-05T16:28:35.465Z,97975.19
2018-07-05T16:31:14.040Z,97987.61
2018-07-05T16:33:52.691Z,97993.00
2018-07-05T16:36:31.370Z,97995.30
2018-07-05T16:39:10.066Z,97986.84
2018-07-05T16:41:48.687Z,97977.95
2018-07-05T16:44:27.395Z,97982.39
2018-07-05T16:47:06.100Z,98001.38
2018-07-05T16:49:44.798Z,98008.43
2018-07-05T16:52:23.487Z,98018.69
2018-07-05T16:55:02.059Z,98032.81
2018-07-05T16:57:40.839Z,98033.11
2018-07-05T17:00:21.102Z,98029.46
2018-07-05T17:02:59.923Z,98032.38
2018-07-05T17:05:38.614Z,98035.20
2018-07-05T17:08:17.399Z,98029.25
2018-07-05T17:10:56.530Z,98043.34
2018-07-05T17:13:35.231Z,98038.81
2018-07-05T17:16:13.899Z,98039.89
2018-07-05T17:18:52.534Z,98038.14
2018-07-05T17:21:31.189Z,98056.55
2018-07-05T17:24:10.014Z,98064.52
2018-07-05T17:26:48.554Z,98075.47
2018-07-05T17:29:27.239Z,98080.70
2018-07-05T17:32:05.990Z,98101.66
2018-07-05T17:34:45.540Z,98111.04
2018-07-05T17:37:25.320Z,98123.70
2018-07-05T17:40:04.032Z,98148.02
2018-07-05T17:42:42.674Z,98152.41
2018-07-05T17:45:21.456Z,98146.53
2018-07-05T17:48:01.389Z,98144.30
2018-07-05T17:50:40.072Z,98140.16
2018-07-05T17:53:18.806Z,98142.86
2018-07-05T17:55:57.370Z,98137.77
2018-07-05T17:58:36.076Z,98133.56
2018-07-05T18:01:15.079Z,98134.80
2018-07-05T18:03:53.659Z,98131.59
2018-07-05T18:06:32.302Z,98133.17
2018-07-05T18:09:11.186Z,98141.33
2018-07-05T18:11:51.546Z,98142.95
2018-07-05T18:14:30.782Z,98153.09
2018-07-05T18:17:09.366Z,98159.94
2018-07-05T18:19:50.787Z,98164.60
2018-07-05T18:22:31.844Z,98165.29
2018-07-05T18:25:11.760Z,98171.13
2018-07-05T18:27:50.481Z,98173.64
2018-07-05T18:30:29.933Z,98182.77
2018-07-05T18:33:09.158Z,98184.71
2018-07-05T18:35:47.876Z,98177.53
2018-07-05T18:38:27.960Z,98180.05
2018-07-05T18:41:07.629Z,98176.06
2018-07-05T18:43:46.715Z,98174.84
2018-07-05T18:46:27.328Z,98177.10
2018-07-05T18:49:10.419Z,98168.89
2018-07-05T18:51:49.853Z,98173.71
2018-07-05T18:54:29.289Z,98169.73
2018-07-05T18:57:08.670Z,98168.08
2018-07-05T18:59:51.826Z,98167.23
2018-07-05T19:02:30.589Z,98162.73
2018-07-05T19:05:19.209Z,98169.84
2018-07-05T19:08:02.478Z,98162.74
2018-07-05T19:10:41.348Z,98167.41
2018-07-05T19:13:27.335Z,98157.77
2018-07-05T19:16:06.794Z,98157.92
2018-07-05T19:18:45.734Z,98157.44
2018-07-05T19:21:24.732Z,98153.55
2018-07-05T19:24:05.052Z,98166.06
2018-07-05T19:26:45.165Z,98163.95
2018-07-05T19:29:24.198Z,98163.32
2018-07-05T19:32:04.824Z,98164.94
2018-07-05T19:34:45.004Z,98165.36
2018-07-05T19:37:25.817Z,98162.34
2018-07-05T19:40:08.122Z,98161.78
2018-07-05T19:42:49.297Z,98156.26
2018-07-05T19:45:30.051Z,98157.20
2018-07-05T19:48:09.119Z,98164.28
2018-07-05T19:50:49.167Z,98163.86
2018-07-05T19:53:29.411Z,98173.76
2018-07-05T19:56:09.902Z,98177.73
2018-07-05T19:58:48.827Z,98179.39
2018-07-05T20:01:28.348Z,98177.17
2018-07-05T20:04:07.521Z,98187.77
2018-07-05T20:06:46.217Z,98185.66
2018-07-05T20:09:25.055Z,98184.27
2018-07-05T20:12:07.932Z,98181.84
2018-07-05T20:14:47.174Z,98183.97
2018-07-05T20:17:25.899Z,98190.98
2018-07-05T20:20:04.629Z,98193.98
2018-07-05T20:22:43.388Z,98195.95
2018-07-05T20:25:22.108Z,98199.33
2018-07-05T20:28:00.952Z,98200.36
2018-07-05T20:30:45.099Z,98189.79
2018-07-05T20:33:23.960Z,98192.61
2018-07-05T20:36:02.856Z,98187.45
2018-07-05T20:38:42.075Z,98194.36
2018-07-05T20:41:20.834Z,98195.16
2018-07-05T20:43:59.474Z,98201.73
2018-07-05T20:46:38.235Z,98216.04
2018-07-05T20:49:16.890Z,98221.56
2018-07-05T20:51:55.554Z,98220.30
2018-07-05T20:54:34.318Z,98220.05
2018-07-05T20:57:13.636Z,98230.14
2018-07-05T20:59:52.916Z,98229.39
2018-07-05T21:02:32.571Z,98229.66
2018-07-05T21:05:11.208Z,98228.43
2018-07-05T21:07:50.430Z,98227.25
2018-07-05T21:10:28.954Z,98233.55
2018-07-05T21:13:07.640Z,98238.73
2018-07-05T21:15:46.535Z,98239.00
2018-07-05T21:18:26.544Z,98240.81
2018-07-05T21:21:05.136Z,98235.77
2018-07-05T21:23:43.834Z,98240.22
2018-07-05T21:26:22.497Z,98239.69
2018-07-05T21:29:01.116Z,98242.56
2018-07-05T21:31:40.024Z,98248.87
2018-07-05T21:34:18.798Z,98249.10
2018-07-05T21:36:57.312Z,98245.66
2018-07-05T21:39:35.987Z,98247.02
2018-07-05T21:42:14.765Z,98235.42
2018-07-05T21:44:53.264Z,98240.78
2018-07-05T21:47:31.797Z,98248.33
2018-07-05T21:50:10.477Z,98246.08
2018-07-05T21:52:49.279Z,98260.19
2018-07-05T21:55:27.784Z,98262.71
2018-07-05T21:58:06.280Z,98255.67
2018-07-05T22:00:44.818Z,98261.66
2018-07-05T22:03:23.589Z,98267.88
2018-07-05T22:06:02.241Z,98268.46
2018-07-05T22:08:40.846Z,98265.80
2018-07-05T22:11:19.506Z,98269.58
2018-07-05T22:13:58.309Z,98265.20
2018-07-05T22:16:41.390Z,98261.20
2018-07-05T22:19:25.762Z,98264.81
2018-07-05T22:22:10.111Z,98258.14
2018-07-05T22:24:54.568Z,98264.80
2018-07-05T22:27:38.931Z,98261.96
2018-07-05T22:30:23.428Z,98255.20
2018-07-05T22:33:01.886Z,98254.55
2018-07-05T22:35:40.538Z,98253.86
2018-07-05T22:38:19.086Z,98256.50
2018-07-05T22:40:57.647Z,98246.53
2018-07-05T22:43:36.291Z,98252.23
2018-07-05T22:46:15.009Z,98248.44
2018-07-05T22:48:53.657Z,98246.73
2018-07-05T22:51:32.425Z,98245.15
2018-07-05T22:54:10.979Z,98244.55
2018-07-05T22:56:49.758Z,98238.86
2018-07-05T22:59:28.385Z,98252.00
2018-07-05T23:02:07.066Z,98250.72
2018-07-05T23:04:45.855Z,98255.55
2018-07-05T23:07:24.634Z,98265.74
2018-07-05T23:10:03.207Z,98263.88
2018-07-05T23:12:41.939Z,98263.86
2018-07-05T23:15:20.589Z,98272.27
2018-07-05T23:17:59.222Z,98273.66
2018-07-05T23:20:38.006Z,98271.69
2018-07-05T23:23:16.712Z,98268.64
2018-07-05T23:25:55.366Z,98279.77
2018-07-05T23:28:34.039Z,98273.39
2018-07-05T23:31:12.802Z,98271.48
2018-07-05T23:33:52.628Z,98274.26
2018-07-05T23:36:31.238Z,98278.73
2018-07-05T23:39:09.946Z,98279.75
2018-07-05T23:41:48.671Z,98280.43
2018-07-05T23:44:27.455Z,98281.00
2018-07-05T23:47:06.197Z,98278.72
2018-07-05T23:49:44.835Z,98277.59
2018-07-05T23:52:23.391Z,98289.38
2018-07-05T23:55:02.179Z,98290.12
2018-07-05T23:57:40.706Z,98291.07
